Wetterdaten: Woche 07.11.05 - 13.11.05 (KW45)
Datum Zeit Temperatur Luftfeuchte Luftdruck Niederschlag Wind Richtung Sonne Helligkeit Taupunkt Windchill
07.11.2005 00:00 7.6 C 90 % 1025.8 hPa 0.0 l/m 0.0 km/h (0 Bft) N 0.00 h 0 lux 6.2 C 7.6 C
07.11.2005 01:00 7.7 C 90 % 1025.8 hPa 0.0 l/m 0.0 km/h (0 Bft) N 0.00 h 0 lux 6.2 C 7.7 C
07.11.2005 02:00 7.6 C 88 % 1025.8 hPa 0.0 l/m 0.4 km/h (0 Bft) SO 0.00 h 0 lux 5.7 C 7.6 C
07.11.2005 03:00 7.1 C 83 % 1025.9 hPa 0.0 l/m 1.4 km/h (1 Bft) SO 0.00 h 0 lux 4.4 C 6.9 C
07.11.2005 04:00 6.9 C 84 % 1025.9 hPa 0.0 l/m 1.1 km/h (1 Bft) SO 0.00 h 0 lux 4.4 C 6.8 C
07.11.2005 05:00 6.6 C 84 % 1025.9 hPa 0.0 l/m 7.5 km/h (2 Bft) SO 0.00 h 0 lux 4.2 C 5.2 C
07.11.2005 06:00 6.4 C 84 % 1026.4 hPa 0.0 l/m 1.2 km/h (1 Bft) SO 0.00 h 0 lux 3.9 C 6.3 C
07.11.2005 07:00 6.6 C 84 % 1027.0 hPa 0.0 l/m 0.2 km/h (0 Bft) W 0.00 h 712 lux 4.0 C 6.6 C
07.11.2005 08:00 7.0 C 82 % 1027.3 hPa 0.0 l/m 2.5 km/h (1 Bft) SO 0.00 h 4.62 klux 4.2 C 6.6 C
07.11.2005 09:00 7.5 C 80 % 1027.9 hPa 0.0 l/m 5.0 km/h (1 Bft) SO 0.00 h 12.1 klux 4.2 C 6.7 C
07.11.2005 10:00 8.1 C 77 % 1027.8 hPa 0.0 l/m 4.0 km/h (1 Bft) SO 0.07 h 19.8 klux 4.3 C 7.6 C
07.11.2005 11:00 8.9 C 73 % 1027.7 hPa 0.0 l/m 2.4 km/h (1 Bft) W-NW 0.20 h 27.9 klux 4.2 C 8.6 C
07.11.2005 12:00 9.7 C 70 % 1027.6 hPa 0.0 l/m 3.3 km/h (1 Bft) SO 0.43 h 32.8 klux 4.5 C 9.5 C
07.11.2005 13:00 10.4 C 68 % 1027.5 hPa 0.0 l/m 3.2 km/h (1 Bft) SO 0.43 h 35.8 klux 4.8 C 10.4 C
07.11.2005 14:00 11.3 C 65 % 1026.8 hPa 0.0 l/m 3.8 km/h (1 Bft) S-SO 0.70 h 37.2 klux 5.0 C 11.3 C
07.11.2005 15:00 11.2 C 64 % 1027.0 hPa 0.0 l/m 3.9 km/h (1 Bft) SO 1.00 h 29.3 klux 4.6 C 11.2 C
07.11.2005 16:00 9.5 C 72 % 1026.9 hPa 0.0 l/m 1.1 km/h (1 Bft) W-NW 0.67 h 7.91 klux 4.6 C 9.5 C
07.11.2005 17:00 7.8 C 80 % 1027.9 hPa 0.0 l/m 5.6 km/h (1 Bft) SO 0.00 h 211 lux 4.6 C 7.0 C
07.11.2005 18:00 6.6 C 86 % 1028.5 hPa 0.0 l/m 1.6 km/h (1 Bft) SO 0.00 h 0 lux 4.4 C 6.4 C
07.11.2005 19:00 5.8 C 91 % 1029.2 hPa 0.0 l/m 0.2 km/h (0 Bft) O-SO 0.00 h 0 lux 4.4 C 5.8 C
07.11.2005 20:00 5.0 C 93 % 1029.3 hPa 0.0 l/m 0.0 km/h (0 Bft) N 0.00 h 0 lux 4.0 C 5.0 C
07.11.2005 21:00 4.2 C 94 % 1029.4 hPa 0.0 l/m 0.0 km/h (0 Bft) N 0.00 h 0 lux 3.3 C 4.2 C
07.11.2005 22:00 3.5 C 94 % 1029.5 hPa 0.0 l/m 0.0 km/h (0 Bft) N 0.00 h 0 lux 2.7 C 3.5 C
07.11.2005 23:00 2.9 C 95 % 1029.6 hPa 0.0 l/m 0.0 km/h (0 Bft) N 0.00 h 0 lux 2.3 C 2.9 C
08.11.2005 00:00 2.7 C 97 % 1029.6 hPa 0.0 l/m 0.0 km/h (0 Bft) N 0.00 h 0 lux 2.3 C 2.7 C
08.11.2005 01:00 3.3 C 98 % 1029.5 hPa 0.0 l/m 0.1 km/h (0 Bft) SO 0.00 h 0 lux 2.9 C 3.3 C
08.11.2005 02:00 3.6 C 99 % 1029.5 hPa 0.0 l/m 0.0 km/h (0 Bft) N 0.00 h 0 lux 3.6 C 3.6 C
08.11.2005 03:00 3.8 C 100 % 1029.5 hPa 0.0 l/m 0.0 km/h (0 Bft) N 0.00 h 0 lux 3.8 C 3.8 C
08.11.2005 04:00 3.8 C 100 % 1029.5 hPa 0.0 l/m 0.0 km/h (0 Bft) N 0.00 h 0 lux 3.8 C 3.8 C
08.11.2005 05:00 3.8 C 100 % 1029.5 hPa 0.0 l/m 0.0 km/h (0 Bft) N 0.00 h 0 lux 3.8 C 3.8 C
08.11.2005 06:00 4.1 C 100 % 1029.4 hPa 0.0 l/m 0.0 km/h (0 Bft) N 0.00 h 0 lux 4.1 C 4.1 C
08.11.2005 07:00 3.6 C 100 % 1028.5 hPa 0.0 l/m 0.2 km/h (0 Bft) W 0.00 h 489 lux 3.6 C 3.6 C
08.11.2005 08:00 3.7 C 100 % 1028.4 hPa 0.3 l/m 0.5 km/h (0 Bft) W-NW 0.00 h 3.34 klux 3.7 C 3.7 C
08.11.2005 09:00 3.7 C 100 % 1028.4 hPa 0.0 l/m 0.2 km/h (0 Bft) W-NW 0.00 h 7.79 klux 3.7 C 3.7 C
08.11.2005 10:00 4.9 C 100 % 1028.3 hPa 0.0 l/m 0.2 km/h (0 Bft) W-NW 0.00 h 15.2 klux 4.9 C 4.9 C
08.11.2005 11:00 6.8 C 94 % 1027.7 hPa 0.0 l/m 2.9 km/h (1 Bft) O-SO 0.00 h 23.4 klux 5.8 C 6.4 C
08.11.2005 12:00 7.3 C 85 % 1026.5 hPa 0.0 l/m 0.7 km/h (0 Bft) O-SO 0.00 h 17.8 klux 5.0 C 7.2 C
08.11.2005 13:00 7.6 C 83 % 1025.7 hPa 0.0 l/m 0.3 km/h (0 Bft) O-SO 0.00 h 16.9 klux 5.0 C 7.6 C
08.11.2005 14:00 7.7 C 84 % 1024.8 hPa 0.0 l/m 0.8 km/h (0 Bft) O-NO 0.00 h 13.0 klux 5.1 C 7.6 C
08.11.2005 15:00 7.5 C 85 % 1024.5 hPa 0.0 l/m 0.4 km/h (0 Bft) O-SO 0.00 h 8.53 klux 5.0 C 7.5 C
08.11.2005 16:00 6.9 C 87 % 1023.8 hPa 0.0 l/m 0.7 km/h (0 Bft) O-SO 0.07 h 3.29 klux 4.9 C 6.8 C
08.11.2005 17:00 6.5 C 90 % 1023.9 hPa 0.0 l/m 1.1 km/h (1 Bft) O-SO 0.00 h 152 lux 5.0 C 6.4 C
08.11.2005 18:00 6.1 C 92 % 1023.8 hPa 0.0 l/m 2.4 km/h (1 Bft) O-SO 0.00 h 0 lux 5.0 C 5.8 C
08.11.2005 19:00 5.6 C 94 % 1023.6 hPa 0.0 l/m 3.1 km/h (1 Bft) O-SO 0.00 h 0 lux 4.8 C 5.1 C
08.11.2005 20:00 5.7 C 96 % 1023.0 hPa 0.0 l/m 1.0 km/h (0 Bft) O-SO 0.00 h 0 lux 5.1 C 5.5 C
08.11.2005 21:00 5.7 C 97 % 1023.0 hPa 0.0 l/m 0.9 km/h (0 Bft) O-SO 0.00 h 0 lux 5.2 C 5.6 C
08.11.2005 22:00 5.7 C 97 % 1023.1 hPa 0.0 l/m 0.8 km/h (0 Bft) O-SO 0.00 h 0 lux 5.3 C 5.7 C
08.11.2005 23:00 5.5 C 98 % 1023.0 hPa 0.0 l/m 0.2 km/h (0 Bft) SW 0.00 h 0 lux 5.2 C 5.5 C
09.11.2005 00:00 5.2 C 97 % 1023.0 hPa 0.0 l/m 4.7 km/h (1 Bft) O-SO 0.00 h 0 lux 4.7 C 4.3 C
09.11.2005 01:00 5.4 C 95 % 1023.0 hPa 0.0 l/m 4.3 km/h (1 Bft) O-SO 0.00 h 0 lux 4.7 C 4.6 C
09.11.2005 02:00 5.6 C 94 % 1023.0 hPa 0.0 l/m 1.6 km/h (1 Bft) O-SO 0.00 h 0 lux 4.7 C 5.3 C
09.11.2005 03:00 5.5 C 94 % 1023.0 hPa 0.0 l/m 0.4 km/h (0 Bft) O-SO 0.00 h 0 lux 4.6 C 5.5 C
09.11.2005 04:00 5.4 C 95 % 1023.0 hPa 0.0 l/m 0.2 km/h (0 Bft) O-SO 0.00 h 0 lux 4.6 C 5.4 C
09.11.2005 05:00 5.2 C 95 % 1023.0 hPa 0.0 l/m 0.0 km/h (0 Bft) N 0.00 h 0 lux 4.5 C 5.2 C
09.11.2005 06:00 4.9 C 96 % 1023.1 hPa 0.0 l/m 0.8 km/h (0 Bft) O-SO 0.00 h 0 lux 4.4 C 4.8 C
09.11.2005 07:00 4.9 C 96 % 1023.6 hPa 0.0 l/m 0.2 km/h (0 Bft) O-SO 0.00 h 326 lux 4.3 C 4.9 C
09.11.2005 08:00 4.4 C 98 % 1024.6 hPa 0.0 l/m 0.1 km/h (0 Bft) O-SO 0.00 h 1.96 klux 4.1 C 4.4 C
09.11.2005 09:00 4.9 C 97 % 1025.2 hPa 0.0 l/m 0.1 km/h (0 Bft) SW 0.00 h 5.60 klux 4.5 C 4.9 C
09.11.2005 10:00 5.4 C 93 % 1025.1 hPa 0.0 l/m 0.9 km/h (0 Bft) O-SO 0.00 h 12.7 klux 4.3 C 5.3 C
09.11.2005 11:00 5.9 C 89 % 1025.5 hPa 0.0 l/m 1.9 km/h (1 Bft) O-SO 0.00 h 16.0 klux 4.2 C 5.6 C
09.11.2005 12:00 6.8 C 85 % 1024.9 hPa 0.0 l/m 1.1 km/h (0 Bft) SO 0.00 h 20.1 klux 4.5 C 6.7 C
09.11.2005 13:00 7.5 C 83 % 1024.8 hPa 0.0 l/m 0.5 km/h (0 Bft) SO 0.00 h 15.0 klux 4.9 C 7.4 C
09.11.2005 14:00 7.7 C 83 % 1024.8 hPa 0.0 l/m 0.4 km/h (0 Bft) S-SO 0.00 h 16.1 klux 5.0 C 7.7 C
09.11.2005 15:00 7.9 C 84 % 1024.7 hPa 0.0 l/m 0.4 km/h (0 Bft) NW 0.40 h 14.7 klux 5.4 C 7.9 C
09.11.2005 16:00 7.6 C 86 % 1024.8 hPa 0.0 l/m 0.5 km/h (0 Bft) NW 0.17 h 4.39 klux 5.5 C 7.6 C
09.11.2005 17:00 7.1 C 91 % 1025.7 hPa 0.0 l/m 0.6 km/h (0 Bft) NW 0.00 h 138 lux 5.7 C 7.1 C
09.11.2005 18:00 6.7 C 93 % 1026.3 hPa 0.0 l/m 1.2 km/h (1 Bft) NW 0.00 h 0 lux 5.6 C 6.6 C
09.11.2005 19:00 6.5 C 95 % 1027.4 hPa 0.0 l/m 0.0 km/h (0 Bft) N 0.00 h 0 lux 5.7 C 6.5 C
09.11.2005 20:00 6.2 C 96 % 1028.1 hPa 0.0 l/m 1.7 km/h (1 Bft) O 0.00 h 0 lux 5.6 C 6.1 C
09.11.2005 21:00 6.0 C 98 % 1029.0 hPa 0.0 l/m 0.7 km/h (0 Bft) O 0.00 h 0 lux 5.7 C 6.0 C
09.11.2005 22:00 5.8 C 100 % 1029.4 hPa 0.0 l/m 0.0 km/h (0 Bft) N 0.00 h 0 lux 5.8 C 5.8 C
09.11.2005 23:00 5.6 C 100 % 1030.3 hPa 0.0 l/m 1.5 km/h (1 Bft) O 0.00 h 0 lux 5.6 C 5.4 C
10.11.2005 00:00 5.2 C 100 % 1030.8 hPa 0.0 l/m 1.6 km/h (1 Bft) O-SO 0.00 h 0 lux 5.2 C 5.0 C
10.11.2005 01:00 4.9 C 100 % 1031.4 hPa 0.0 l/m 1.5 km/h (1 Bft) O-SO 0.00 h 0 lux 4.9 C 4.6 C
10.11.2005 02:00 5.0 C 100 % 1031.4 hPa 0.0 l/m 0.0 km/h (0 Bft) N 0.00 h 0 lux 5.0 C 5.0 C
10.11.2005 03:00 5.1 C 100 % 1032.3 hPa 0.0 l/m 0.0 km/h (0 Bft) N 0.00 h 0 lux 5.1 C 5.1 C
10.11.2005 04:00 4.5 C 100 % 1032.7 hPa 0.0 l/m 1.4 km/h (1 Bft) W-NW 0.00 h 0 lux 4.5 C 4.2 C
10.11.2005 05:00 4.1 C 100 % 1033.6 hPa 0.0 l/m 1.4 km/h (1 Bft) W-NW 0.00 h 0 lux 4.1 C 3.9 C
10.11.2005 06:00 4.2 C 100 % 1033.7 hPa 0.0 l/m 0.0 km/h (0 Bft) N 0.00 h 0 lux 4.2 C 4.2 C
10.11.2005 07:00 4.0 C 100 % 1034.6 hPa 0.0 l/m 0.1 km/h (0 Bft) N 0.00 h 511 lux 4.0 C 4.0 C
10.11.2005 08:00 4.3 C 100 % 1035.5 hPa 0.0 l/m 0.1 km/h (0 Bft) N 0.00 h 3.60 klux 4.3 C 4.3 C
10.11.2005 09:00 4.8 C 100 % 1035.6 hPa 0.0 l/m 0.0 km/h (0 Bft) N 0.00 h 7.34 klux 4.8 C 4.8 C
10.11.2005 10:00 5.7 C 100 % 1035.5 hPa 0.0 l/m 0.1 km/h (0 Bft) N 0.00 h 10.5 klux 5.7 C 5.7 C
10.11.2005 11:00 6.9 C 98 % 1035.7 hPa 0.0 l/m 0.4 km/h (0 Bft) W-NW 0.07 h 23.5 klux 6.6 C 6.9 C
10.11.2005 12:00 8.8 C 87 % 1035.0 hPa 0.0 l/m 0.3 km/h (0 Bft) W-NW 0.00 h 25.7 klux 6.8 C 8.8 C
10.11.2005 13:00 10.0 C 83 % 1034.8 hPa 0.0 l/m 0.3 km/h (0 Bft) NW 0.00 h 20.5 klux 7.3 C 9.9 C
10.11.2005 14:00 10.4 C 84 % 1034.8 hPa 0.0 l/m 0.0 km/h (0 Bft) N 0.00 h 12.2 klux 7.8 C 10.4 C
10.11.2005 15:00 10.6 C 84 % 1034.8 hPa 0.0 l/m 0.0 km/h (0 Bft) N 0.00 h 10.2 klux 7.9 C 10.6 C
10.11.2005 16:00 10.2 C 85 % 1034.8 hPa 0.0 l/m 0.0 km/h (0 Bft) N 0.08 h 3.29 klux 7.9 C 10.2 C
10.11.2005 17:00 9.8 C 90 % 1035.3 hPa 0.0 l/m 0.0 km/h (0 Bft) N 0.00 h 65 lux 8.2 C 9.8 C
10.11.2005 18:00 9.8 C 90 % 1035.9 hPa 0.0 l/m 0.0 km/h (0 Bft) N 0.00 h 0 lux 8.2 C 9.8 C
10.11.2005 19:00 9.9 C 90 % 1035.9 hPa 0.0 l/m 1.3 km/h (1 Bft) NW 0.00 h 0 lux 8.3 C 9.8 C
10.11.2005 20:00 9.8 C 91 % 1035.9 hPa 0.0 l/m 0.7 km/h (0 Bft) NW 0.00 h 0 lux 8.3 C 9.8 C
10.11.2005 21:00 9.4 C 92 % 1036.0 hPa 0.0 l/m 0.9 km/h (0 Bft) NW 0.00 h 0 lux 8.2 C 9.3 C
10.11.2005 22:00 9.5 C 94 % 1035.9 hPa 0.0 l/m 0.0 km/h (0 Bft) N 0.00 h 0 lux 8.6 C 9.5 C
10.11.2005 23:00 9.5 C 94 % 1035.8 hPa 0.0 l/m 0.0 km/h (0 Bft) N 0.00 h 0 lux 8.5 C 9.5 C
11.11.2005 00:00 9.4 C 95 % 1034.9 hPa 0.0 l/m 0.0 km/h (0 Bft) N 0.00 h 0 lux 8.6 C 9.4 C
11.11.2005 01:00 9.4 C 94 % 1034.9 hPa 0.0 l/m 0.0 km/h (0 Bft) N 0.00 h 0 lux 8.5 C 9.4 C
11.11.2005 02:00 9.4 C 94 % 1034.7 hPa 0.0 l/m 0.0 km/h (0 Bft) N 0.00 h 0 lux 8.5 C 9.4 C
11.11.2005 03:00 9.4 C 94 % 1033.9 hPa 0.0 l/m 0.2 km/h (0 Bft) N 0.00 h 0 lux 8.5 C 9.4 C
11.11.2005 04:00 9.4 C 92 % 1033.9 hPa 0.0 l/m 0.0 km/h (0 Bft) N 0.00 h 0 lux 8.2 C 9.4 C
11.11.2005 05:00 9.3 C 92 % 1033.5 hPa 0.0 l/m 0.0 km/h (0 Bft) N 0.00 h 0 lux 8.1 C 9.3 C
11.11.2005 06:00 9.1 C 93 % 1032.9 hPa 0.0 l/m 0.0 km/h (0 Bft) N 0.00 h 0 lux 8.1 C 9.1 C
11.11.2005 07:00 9.2 C 94 % 1032.9 hPa 0.0 l/m 0.0 km/h (0 Bft) N 0.00 h 526 lux 8.2 C 9.2 C
11.11.2005 08:00 9.3 C 93 % 1032.8 hPa 0.0 l/m 0.0 km/h (0 Bft) N 0.00 h 4.14 klux 8.2 C 9.3 C
11.11.2005 09:00 9.8 C 87 % 1032.5 hPa 0.0 l/m 0.1 km/h (0 Bft) N 0.00 h 9.2 klux 7.8 C 9.8 C
11.11.2005 10:00 10.3 C 81 % 1031.7 hPa 0.0 l/m 0.0 km/h (0 Bft) N 0.00 h 12.2 klux 7.2 C 10.3 C
11.11.2005 11:00 10.8 C 77 % 1031.6 hPa 0.0 l/m 0.3 km/h (0 Bft) NW 0.00 h 17.9 klux 6.9 C 10.8 C
11.11.2005 12:00 11.2 C 72 % 1030.6 hPa 0.0 l/m 0.1 km/h (0 Bft) NW 0.00 h 15.7 klux 6.3 C 11.2 C
11.11.2005 13:00 11.3 C 65 % 1030.0 hPa 0.0 l/m 0.1 km/h (0 Bft) N 0.00 h 11.6 klux 5.1 C 11.3 C
11.11.2005 14:00 11.2 C 66 % 1029.5 hPa 0.0 l/m 0.0 km/h (0 Bft) N 0.00 h 8.43 klux 5.1 C 11.2 C
11.11.2005 15:00 10.9 C 68 % 1028.8 hPa 0.0 l/m 0.7 km/h (0 Bft) O 0.00 h 5.55 klux 5.1 C 10.9 C
11.11.2005 16:00 10.3 C 71 % 1028.2 hPa 0.0 l/m 0.0 km/h (0 Bft) N 0.07 h 2.26 klux 5.3 C 10.3 C
11.11.2005 17:00 7.9 C 77 % 1027.8 hPa 0.0 l/m 1.2 km/h (1 Bft) O-SO 0.00 h 144 lux 4.2 C 7.8 C
11.11.2005 18:00 6.1 C 85 % 1028.1 hPa 0.0 l/m 5.9 km/h (2 Bft) O-SO 0.00 h 0 lux 3.8 C 5.1 C
11.11.2005 19:00 5.0 C 91 % 1027.2 hPa 0.0 l/m 3.5 km/h (1 Bft) O-SO 0.00 h 0 lux 3.6 C 4.6 C
11.11.2005 20:00 4.0 C 93 % 1027.4 hPa 0.0 l/m 0.8 km/h (0 Bft) O-SO 0.00 h 0 lux 2.9 C 3.9 C
11.11.2005 21:00 3.2 C 95 % 1027.5 hPa 0.0 l/m 0.7 km/h (0 Bft) O-SO 0.00 h 0 lux 2.4 C 3.2 C
11.11.2005 22:00 2.5 C 95 % 1027.6 hPa 0.0 l/m 0.1 km/h (0 Bft) N 0.00 h 0 lux 1.8 C 2.5 C
11.11.2005 23:00 2.3 C 96 % 1026.6 hPa 0.0 l/m 0.0 km/h (0 Bft) N 0.00 h 0 lux 1.8 C 2.3 C
12.11.2005 00:00 3.4 C 97 % 1026.4 hPa 0.0 l/m 0.1 km/h (0 Bft) O-SO 0.00 h 0 lux 3.1 C 3.4 C
12.11.2005 01:00 4.3 C 99 % 1025.8 hPa 0.0 l/m 0.1 km/h (0 Bft) N 0.00 h 0 lux 4.1 C 4.3 C
12.11.2005 02:00 4.8 C 99 % 1025.2 hPa 0.0 l/m 0.0 km/h (0 Bft) N 0.00 h 0 lux 4.5 C 4.8 C
12.11.2005 03:00 5.0 C 99 % 1024.7 hPa 0.0 l/m 0.0 km/h (0 Bft) N 0.00 h 0 lux 4.8 C 5.0 C
12.11.2005 04:00 5.1 C 98 % 1024.1 hPa 0.0 l/m 1.4 km/h (1 Bft) O-SO 0.00 h 0 lux 4.8 C 4.9 C
12.11.2005 05:00 5.1 C 98 % 1023.5 hPa 0.0 l/m 0.2 km/h (0 Bft) O-SO 0.00 h 0 lux 4.8 C 5.1 C
12.11.2005 06:00 4.8 C 100 % 1023.1 hPa 0.0 l/m 0.0 km/h (0 Bft) N 0.00 h 0 lux 4.7 C 4.8 C
12.11.2005 07:00 4.6 C 100 % 1023.1 hPa 0.0 l/m 0.0 km/h (0 Bft) N 0.00 h 434 lux 4.6 C 4.6 C
12.11.2005 08:00 4.7 C 100 % 1023.1 hPa 0.0 l/m 0.0 km/h (0 Bft) N 0.00 h 2.94 klux 4.7 C 4.7 C
12.11.2005 09:00 5.0 C 100 % 1022.7 hPa 0.0 l/m 0.1 km/h (0 Bft) O-SO 0.00 h 6.04 klux 5.0 C 5.0 C
12.11.2005 10:00 5.9 C 95 % 1021.9 hPa 0.0 l/m 1.2 km/h (1 Bft) O-SO 0.00 h 12.2 klux 5.1 C 5.7 C
12.11.2005 11:00 6.4 C 90 % 1021.0 hPa 0.0 l/m 7.5 km/h (2 Bft) O-SO 0.00 h 11.7 klux 5.0 C 4.9 C
12.11.2005 12:00 6.9 C 88 % 1020.4 hPa 0.0 l/m 4.6 km/h (1 Bft) O-SO 0.00 h 18.6 klux 5.0 C 6.1 C
12.11.2005 13:00 8.2 C 81 % 1019.4 hPa 0.0 l/m 4.3 km/h (1 Bft) O-SO 0.75 h 44.4 klux 5.1 C 7.6 C
12.11.2005 14:00 8.6 C 75 % 1018.4 hPa 0.0 l/m 5.4 km/h (1 Bft) O-SO 0.65 h 32.2 klux 4.4 C 7.9 C
12.11.2005 15:00 8.6 C 77 % 1018.4 hPa 0.0 l/m 0.1 km/h (0 Bft) N 0.22 h 12.8 klux 4.7 C 8.6 C
12.11.2005 16:00 7.5 C 81 % 1018.0 hPa 0.0 l/m 0.9 km/h (0 Bft) O-SO 0.00 h 2.44 klux 4.4 C 7.5 C
12.11.2005 17:00 5.6 C 88 % 1018.5 hPa 0.0 l/m 0.6 km/h (0 Bft) O-SO 0.00 h 95 lux 3.8 C 5.5 C
12.11.2005 18:00 5.7 C 92 % 1018.2 hPa 0.0 l/m 2.5 km/h (1 Bft) O-SO 0.00 h 0 lux 4.5 C 5.2 C
12.11.2005 19:00 5.6 C 94 % 1017.8 hPa 0.0 l/m 0.7 km/h (0 Bft) O 0.00 h 0 lux 4.7 C 5.5 C
12.11.2005 20:00 4.6 C 95 % 1017.9 hPa 0.0 l/m 0.7 km/h (0 Bft) NW 0.00 h 0 lux 3.8 C 4.5 C
12.11.2005 21:00 4.1 C 96 % 1018.0 hPa 0.0 l/m 1.5 km/h (1 Bft) O-SO 0.00 h 0 lux 3.6 C 3.9 C
12.11.2005 22:00 4.6 C 99 % 1017.9 hPa 0.0 l/m 1.1 km/h (1 Bft) W-NW 0.00 h 0 lux 4.5 C 4.3 C
12.11.2005 23:00 3.9 C 100 % 1018.0 hPa 0.0 l/m 0.5 km/h (0 Bft) W-NW 0.00 h 0 lux 3.9 C 3.8 C
13.11.2005 00:00 4.2 C 100 % 1018.0 hPa 0.0 l/m 0.0 km/h (0 Bft) NW 0.00 h 0 lux 4.2 C 4.2 C
13.11.2005 01:00 3.4 C 100 % 1018.8 hPa 0.0 l/m 1.6 km/h (1 Bft) O 0.00 h 0 lux 3.4 C 3.4 C
13.11.2005 02:00 3.1 C 100 % 1019.2 hPa 0.0 l/m 0.6 km/h (0 Bft) O 0.00 h 0 lux 3.1 C 3.0 C
13.11.2005 03:00 2.8 C 100 % 1019.2 hPa 0.0 l/m 0.3 km/h (0 Bft) O-SO 0.00 h 0 lux 2.8 C 2.7 C
13.11.2005 04:00 2.5 C 100 % 1019.3 hPa 0.3 l/m 0.3 km/h (0 Bft) O-NO 0.00 h 0 lux 2.5 C 2.5 C
13.11.2005 05:00 2.9 C 100 % 1019.2 hPa 0.0 l/m 0.0 km/h (0 Bft) N 0.00 h 0 lux 2.9 C 2.9 C
13.11.2005 06:00 3.3 C 100 % 1019.2 hPa 0.0 l/m 0.4 km/h (0 Bft) O 0.00 h 0 lux 3.3 C 3.3 C
13.11.2005 07:00 3.4 C 100 % 1020.0 hPa 0.0 l/m 0.5 km/h (0 Bft) O-SO 0.00 h 485 lux 3.4 C 3.3 C
13.11.2005 08:00 3.9 C 100 % 1020.1 hPa 0.0 l/m 0.0 km/h (0 Bft) N 0.00 h 2.43 klux 3.9 C 3.9 C
13.11.2005 09:00 4.4 C 100 % 1020.0 hPa 0.0 l/m 0.0 km/h (0 Bft) N 0.00 h 5.19 klux 4.4 C 4.4 C
13.11.2005 10:00 5.0 C 97 % 1020.9 hPa 0.0 l/m 0.0 km/h (0 Bft) N 0.00 h 9.6 klux 4.6 C 5.0 C
13.11.2005 11:00 5.6 C 93 % 1020.9 hPa 0.0 l/m 0.0 km/h (0 Bft) N 0.00 h 15.2 klux 4.5 C 5.6 C
13.11.2005 12:00 6.9 C 86 % 1020.3 hPa 0.0 l/m 1.3 km/h (1 Bft) SO 0.00 h 19.1 klux 4.7 C 6.7 C
13.11.2005 13:00 7.4 C 81 % 1019.6 hPa 0.0 l/m 2.9 km/h (1 Bft) O-SO 0.00 h 21.7 klux 4.3 C 7.0 C
13.11.2005 14:00 7.5 C 81 % 1019.6 hPa 0.0 l/m 7.8 km/h (2 Bft) O-SO 0.00 h 14.0 klux 4.4 C 6.1 C
13.11.2005 15:00 7.3 C 82 % 1019.6 hPa 0.0 l/m 5.0 km/h (1 Bft) O-SO 0.00 h 7.41 klux 4.4 C 6.4 C
13.11.2005 16:00 6.8 C 82 % 1020.1 hPa 0.0 l/m 0.1 km/h (0 Bft) O-SO 0.03 h 2.86 klux 4.0 C 6.8 C
13.11.2005 17:00 6.6 C 86 % 1020.8 hPa 0.0 l/m 0.5 km/h (0 Bft) O-SO 0.00 h 55 lux 4.4 C 6.5 C
13.11.2005 18:00 6.5 C 87 % 1021.5 hPa 0.0 l/m 0.0 km/h (0 Bft) N 0.00 h 0 lux 4.5 C 6.5 C
13.11.2005 19:00 6.7 C 85 % 1021.8 hPa 0.0 l/m 0.0 km/h (0 Bft) N 0.00 h 0 lux 4.4 C 6.7 C
13.11.2005 20:00 6.3 C 85 % 1022.6 hPa 0.0 l/m 0.0 km/h (0 Bft) N 0.00 h 0 lux 3.9 C 6.3 C
13.11.2005 21:00 5.9 C 83 % 1022.9 hPa 0.0 l/m 0.0 km/h (0 Bft) O-SO 0.00 h 0 lux 3.3 C 5.9 C
13.11.2005 22:00 5.7 C 83 % 1023.0 hPa 0.0 l/m 2.1 km/h (1 Bft) O-SO 0.00 h 0 lux 3.0 C 5.4 C
13.11.2005 23:00 5.4 C 82 % 1023.8 hPa 0.0 l/m 8.6 km/h (2 Bft) O-SO 0.00 h 0 lux 2.7 C 3.6 C
Min-Datum _ 11.11.05 07.11.05 12.11.05 - 07.11.05 - - - 11.11.05 13.11.05
_ Min-Zeit 23:32 15:01 16:12 - 00:01 - - - 23:32 03:47
Minimum _ 1.7 C 61 % 1017.4 hPa - 0.0 km/h (0 Bft) - - - 1.1 C 0.9 C
Max-Datum _ 07.11.05 08.11.05 10.11.05 08.11.05 07.11.05 - 10.11.05 07.11.05 11.11.05 07.11.05
_ Max-Zeit 14:57 01:34 10:55 08:32 10:13 - 16:02 13:59 00:59 14:57
Maximum _ 12.0 C 100 % 1036.4 hPa 0.3 l/m 19.0 km/h
SO (3 Bft)
- 0.05 h 70.3 klux 8.7 C 12.0 C
Durchschnitt _ 6.4 C 91 % 1026.6 hPa #0.6 l/m 1.1 km/h (0 Bft) O-SO #6:00 h 5.19 klux 4.9 C 6.3 C
© Kaiko 2005